Time;durP1;ratioP1;P1;durP2;ratioP2;P2;SDS_P1;SDS_P2;PMS_P1;PMS_P2;Temp;Humidity;BMP_temperature;BMP_pressure;BME280_temperature;BME280_humidity;BME280_pressure;Samples;Min_cycle;Max_cycle;Signal;HPM_P1;HPM_P2
2023/09/11 00:01:18;;;;;;;1.25;1.15;;;15.30;1.00;;;;;;5037239;28;20041;-79
2023/09/11 00:03:44;;;;;;;;;;;15.30;1.00;;;;;;5029075;28;20038;-80
2023/09/11 00:06:10;;;;;;;1.55;1.20;;;15.30;1.00;;;;;;5034690;28;20266;-80
2023/09/11 00:08:36;;;;;;;0.60;0.60;;;15.30;1.00;;;;;;5034746;28;20456;-80
2023/09/11 00:11:03;;;;;;;0.75;0.73;;;15.30;1.00;;;;;;5024230;28;20030;-79
2023/09/11 00:13:31;;;;;;;1.08;0.90;;;15.20;1.00;;;;;;5021124;28;20055;-80
2023/09/11 00:15:57;;;;;;;2.50;1.35;;;15.20;1.00;;;;;;5028171;28;20360;-80
2023/09/11 00:18:24;;;;;;;7.93;2.15;;;15.20;1.00;;;;;;5024190;28;20021;-80
2023/09/11 00:20:50;;;;;;;2.25;1.63;;;15.30;1.00;;;;;;5031243;28;20029;-80
2023/09/11 00:23:17;;;;;;;1.25;0.55;;;15.30;1.00;;;;;;5035269;28;20520;-79
2023/09/11 00:25:43;;;;;;;0.65;0.65;;;15.20;1.00;;;;;;5031354;28;20034;-80
2023/09/11 00:28:09;;;;;;;5.97;1.55;;;15.00;1.00;;;;;;5028796;28;20041;-79
2023/09/11 00:30:36;;;;;;;1.90;1.10;;;15.00;1.00;;;;;;5024680;28;20032;-80
2023/09/11 00:33:03;;;;;;;1.95;1.17;;;15.00;1.00;;;;;;5033171;28;20030;-79
2023/09/11 00:35:29;;;;;;;3.15;1.27;;;15.00;7.40;;;;;;5023320;28;20374;-79
2023/09/11 00:37:55;;;;;;;1.55;1.40;;;15.20;1.00;;;;;;5021102;28;20033;-82
2023/09/11 00:40:21;;;;;;;2.28;1.27;;;15.20;1.00;;;;;;5022410;28;20034;-79
2023/09/11 00:42:47;;;;;;;4.22;1.80;;;15.30;1.00;;;;;;5032633;28;20026;-79
2023/09/11 00:45:13;;;;;;;2.45;1.30;;;15.30;1.00;;;;;;5038418;28;20042;-79
2023/09/11 00:47:42;;;;;;;2.50;1.75;;;15.30;1.00;;;;;;5026430;28;20383;-79
2023/09/11 00:50:10;;;;;;;1.27;1.17;;;15.20;1.00;;;;;;5032642;28;20029;-79
2023/09/11 00:52:39;;;;;;;2.75;1.95;;;15.20;1.00;;;;;;5028386;28;20030;-82
2023/09/11 00:55:07;;;;;;;1.95;1.45;;;15.10;1.00;;;;;;5021817;28;20386;-79
2023/09/11 00:57:33;;;;;;;1.77;1.65;;;15.10;1.00;;;;;;5029020;28;20040;-79
2023/09/11 00:59:59;;;;;;;1.05;0.80;;;15.00;1.00;;;;;;5040277;28;20041;-80
2023/09/11 01:02:26;;;;;;;1.30;1.17;;;15.00;1.00;;;;;;5017463;28;20113;-79
2023/09/11 01:04:52;;;;;;;0.65;0.65;;;15.00;1.00;;;;;;5028876;28;20024;-80
2023/09/11 01:07:18;;;;;;;2.25;0.85;;;14.90;1.00;;;;;;5039403;28;20120;-79
2023/09/11 01:09:44;;;;;;;2.67;1.55;;;14.80;1.00;;;;;;5034710;28;20040;-79
2023/09/11 01:12:10;;;;;;;1.83;1.45;;;14.80;1.00;;;;;;5024486;28;20186;-80
2023/09/11 01:14:37;;;;;;;0.68;0.68;;;14.80;1.00;;;;;;5030180;28;20113;-80
2023/09/11 01:17:33;;;;;;;3.95;1.73;;;14.80;1.00;;;;;;5027292;28;20040;-80
2023/09/11 01:20:21;;;;;;;1.23;0.98;;;14.70;1.00;;;;;;5019322;28;20375;-82
2023/09/11 01:23:08;;;;;;;0.40;0.40;;;14.70;1.00;;;;;;5024853;28;20034;-80
2023/09/11 01:26:02;;;;;;;2.95;1.63;;;14.70;1.00;;;;;;5030075;28;20040;-80
2023/09/11 01:29:05;;;;;;;0.60;0.57;;;14.70;1.00;;;;;;5030474;28;20037;-80
2023/09/11 01:31:32;;;;;;;0.57;0.40;;;14.40;1.00;;;;;;5034690;28;20052;-79
2023/09/11 01:34:03;;;;;;;0.82;0.82;;;14.30;1.00;;;;;;5030784;28;20358;-82
2023/09/11 01:36:29;;;;;;;1.83;0.70;;;14.30;1.70;;;;;;5026631;28;20049;-80
2023/09/11 01:38:55;;;;;;;1.33;1.15;;;14.40;12.60;;;;;;5026553;28;20034;-80
2023/09/11 01:41:30;;;;;;;1.17;0.90;;;14.40;16.00;;;;;;5032927;28;20056;-80
2023/09/11 01:44:03;;;;;;;2.65;1.75;;;14.40;10.00;;;;;;5026591;28;20033;-81
2023/09/11 01:46:29;;;;;;;1.63;1.52;;;14.40;3.20;;;;;;5018431;28;20034;-79
2023/09/11 01:48:57;;;;;;;0.75;0.60;;;14.40;1.10;;;;;;5042440;28;20051;-79
2023/09/11 01:51:24;;;;;;;1.20;0.65;;;14.40;1.00;;;;;;5033271;28;20041;-80
2023/09/11 01:53:51;;;;;;;0.57;0.55;;;14.40;1.00;;;;;;5025905;28;20025;-80
2023/09/11 01:56:18;;;;;;;0.57;0.45;;;14.20;1.00;;;;;;5029191;28;20428;-80
2023/09/11 01:58:44;;;;;;;2.42;0.98;;;14.20;1.00;;;;;;5034847;28;20096;-80
2023/09/11 02:01:11;;;;;;;1.65;1.42;;;14.10;2.00;;;;;;5023332;28;20050;-80
2023/09/11 02:03:40;;;;;;;0.93;0.82;;;14.20;12.40;;;;;;5032461;28;20041;-79
2023/09/11 02:06:07;;;;;;;2.72;1.75;;;14.20;1.00;;;;;;5021000;28;20116;-80
2023/09/11 02:08:33;;;;;;;2.22;1.33;;;14.20;1.00;;;;;;5021502;28;20025;-80
2023/09/11 02:10:59;;;;;;;1.60;0.70;;;14.10;1.00;;;;;;5031514;28;20038;-82
2023/09/11 02:13:25;;;;;;;1.00;0.93;;;14.00;1.00;;;;;;5026669;28;20017;-80
2023/09/11 02:15:51;;;;;;;2.78;1.48;;;13.90;1.00;;;;;;5038687;28;20052;-80
2023/09/11 02:18:19;;;;;;;5.20;2.88;;;13.90;7.70;;;;;;5030078;28;20036;-80
2023/09/11 02:20:47;;;;;;;1.95;1.45;;;13.80;30.50;;;;;;5017972;28;20033;-80
2023/09/11 02:23:15;;;;;;;1.85;1.33;;;13.70;53.10;;;;;;5030424;28;20053;-80
2023/09/11 02:25:41;;;;;;;1.38;1.10;;;13.60;59.20;;;;;;5027265;28;20042;-80
2023/09/11 02:28:08;;;;;;;2.28;1.13;;;13.80;90.10;;;;;;5020014;28;20037;-80
2023/09/11 02:30:34;;;;;;;7.72;1.45;;;13.90;82.80;;;;;;5016072;28;20026;-81
2023/09/11 02:33:00;;;;;;;0.47;0.47;;;13.90;54.90;;;;;;5039757;28;20021;-82
2023/09/11 02:35:26;;;;;;;3.78;1.52;;;13.90;31.30;;;;;;5034863;28;20055;-80
2023/09/11 02:37:52;;;;;;;1.38;1.17;;;13.90;21.60;;;;;;5027749;28;20034;-80
2023/09/11 02:40:18;;;;;;;0.55;0.55;;;13.80;13.50;;;;;;5032939;28;20037;-81
2023/09/11 02:42:44;;;;;;;1.77;0.80;;;13.80;28.70;;;;;;5034977;28;20036;-80
2023/09/11 02:45:11;;;;;;;0.80;0.77;;;13.80;30.40;;;;;;5025355;28;20030;-80
2023/09/11 02:47:37;;;;;;;2.25;1.75;;;13.90;24.10;;;;;;5021331;28;20026;-80
2023/09/11 02:50:03;;;;;;;1.40;0.82;;;14.00;1.00;;;;;;5028684;28;20052;-83
2023/09/11 02:52:30;;;;;;;2.33;1.75;;;13.90;1.00;;;;;;5029647;28;20046;-81
2023/09/11 02:54:56;;;;;;;7.10;2.15;;;13.70;1.00;;;;;;5032133;28;20037;-80
2023/09/11 02:57:22;;;;;;;1.50;1.40;;;13.70;1.00;;;;;;5036416;28;20217;-80
2023/09/11 02:59:49;;;;;;;0.68;0.52;;;13.70;2.70;;;;;;5035187;28;20064;-80
2023/09/11 03:02:15;;;;;;;1.83;1.50;;;13.70;1.00;;;;;;5044422;28;20080;-80
2023/09/11 03:04:41;;;;;;;1.33;1.23;;;13.80;1.00;;;;;;5028828;28;20037;-80
2023/09/11 03:07:07;;;;;;;0.77;0.73;;;13.70;1.00;;;;;;5035287;28;20343;-80
2023/09/11 03:09:33;;;;;;;2.25;1.55;;;13.70;1.00;;;;;;5026448;28;20400;-80
2023/09/11 03:11:59;;;;;;;1.35;0.98;;;13.80;1.00;;;;;;5039144;28;20591;-80
2023/09/11 03:14:25;;;;;;;0.85;0.85;;;13.90;1.00;;;;;;5039840;28;20490;-80
2023/09/11 03:16:51;;;;;;;0.90;0.82;;;13.90;1.00;;;;;;5041491;28;20029;-81
2023/09/11 03:19:18;;;;;;;0.73;0.73;;;13.80;1.00;;;;;;5034451;28;20041;-80
2023/09/11 03:21:44;;;;;;;0.82;0.65;;;13.60;1.00;;;;;;5036941;28;20040;-81
2023/09/11 03:24:10;;;;;;;0.70;0.70;;;13.50;1.00;;;;;;5040822;28;20053;-80
2023/09/11 03:26:37;;;;;;;1.88;1.42;;;13.40;1.00;;;;;;5033322;28;20037;-80
2023/09/11 03:29:03;;;;;;;2.85;1.08;;;13.30;1.50;;;;;;5025775;28;20054;-83
2023/09/11 03:31:30;;;;;;;1.55;1.08;;;13.30;8.80;;;;;;5031154;28;20473;-80
2023/09/11 03:33:57;;;;;;;2.40;1.50;;;13.20;19.20;;;;;;5041834;28;20044;-80
2023/09/11 03:36:23;;;;;;;1.55;1.23;;;13.20;32.30;;;;;;5030593;28;20056;-80
2023/09/11 03:38:50;;;;;;;3.05;1.50;;;13.20;40.60;;;;;;5030922;28;20045;-80
2023/09/11 03:41:18;;;;;;;1.88;0.90;;;13.10;43.50;;;;;;5037260;28;20032;-80
2023/09/11 03:43:45;;;;;;;1.35;0.85;;;13.20;69.90;;;;;;5030694;28;20029;-80
2023/09/11 03:46:14;;;;;;;0.55;0.45;;;13.30;70.50;;;;;;5032704;28;20049;-80
2023/09/11 03:48:43;;;;;;;0.52;0.47;;;13.40;54.40;;;;;;5028641;28;20044;-80
2023/09/11 03:51:10;;;;;;;3.13;1.95;;;13.30;27.90;;;;;;5029288;28;20045;-80
2023/09/11 03:53:42;;;;;;;3.20;1.17;;;13.20;21.40;;;;;;5028240;28;20042;-80
2023/09/11 03:56:13;;;;;;;2.47;1.42;;;13.20;26.20;;;;;;5016766;28;20112;-81
2023/09/11 03:58:42;;;;;;;2.30;1.83;;;13.20;26.70;;;;;;5036619;28;20037;-80
2023/09/11 04:01:09;;;;;;;0.52;0.52;;;13.20;33.50;;;;;;5035376;28;20045;-80
2023/09/11 04:03:35;;;;;;;1.23;1.13;;;13.10;32.00;;;;;;5031329;28;20463;-80
2023/09/11 04:06:01;;;;;;;0.85;0.85;;;13.10;45.80;;;;;;5029548;28;20350;-80
2023/09/11 04:08:28;;;;;;;1.00;0.85;;;13.20;57.80;;;;;;5025696;28;20049;-79
2023/09/11 04:10:54;;;;;;;1.65;1.52;;;13.20;40.60;;;;;;5032759;28;20038;-80
2023/09/11 04:13:20;;;;;;;1.85;0.68;;;13.10;28.90;;;;;;5021977;28;20048;-80
2023/09/11 04:15:46;;;;;;;9.95;1.48;;;13.10;21.70;;;;;;5029184;28;20060;-79
2023/09/11 04:18:12;;;;;;;0.73;0.70;;;13.00;20.80;;;;;;5029438;28;20038;-80
2023/09/11 04:20:38;;;;;;;1.27;1.17;;;13.10;37.10;;;;;;5024582;28;20363;-80
2023/09/11 04:23:05;;;;;;;2.10;1.17;;;13.10;49.30;;;;;;5029945;28;20030;-83
2023/09/11 04:25:33;;;;;;;4.53;1.23;;;13.20;56.70;;;;;;5034050;28;20463;-79
2023/09/11 04:27:59;;;;;;;1.75;1.65;;;13.20;47.80;;;;;;5029947;28;20501;-79
2023/09/11 04:30:25;;;;;;;0.70;0.70;;;13.10;42.60;;;;;;5025282;28;20056;-79
2023/09/11 04:32:52;;;;;;;2.47;1.42;;;13.10;38.00;;;;;;5034333;28;20485;-79
2023/09/11 04:35:18;;;;;;;1.98;1.50;;;13.10;42.20;;;;;;5026259;28;20362;-79
2023/09/11 04:37:45;;;;;;;1.25;0.75;;;13.20;40.80;;;;;;5037081;28;20121;-79
2023/09/11 04:40:12;;;;;;;0.95;0.93;;;13.10;28.20;;;;;;5031365;28;20038;-78
2023/09/11 04:42:38;;;;;;;1.30;1.20;;;13.10;18.20;;;;;;5036438;28;20034;-79
2023/09/11 04:45:05;;;;;;;1.42;0.63;;;13.10;8.20;;;;;;5037578;28;20029;-78
2023/09/11 04:47:32;;;;;;;1.50;1.40;;;13.00;7.30;;;;;;5032640;28;20029;-79
2023/09/11 04:49:59;;;;;;;1.38;1.27;;;13.00;6.70;;;;;;5048876;28;20052;-81
2023/09/11 04:52:25;;;;;;;1.90;1.80;;;13.00;8.50;;;;;;5042370;28;20029;-82
2023/09/11 04:54:53;;;;;;;1.33;1.23;;;13.00;7.40;;;;;;5056889;28;20033;-82
2023/09/11 04:57:19;;;;;;;1.25;1.15;;;13.10;9.70;;;;;;5050470;28;20065;-80
2023/09/11 04:59:45;;;;;;;0.90;0.82;;;13.00;10.20;;;;;;5050628;28;20671;-81
2023/09/11 05:02:11;;;;;;;0.55;0.55;;;13.00;16.20;;;;;;5041896;28;20372;-84
2023/09/11 05:04:39;;;;;;;1.98;1.50;;;13.00;27.10;;;;;;5041793;28;20042;-78
2023/09/11 05:07:05;;;;;;;0.82;0.75;;;12.90;40.00;;;;;;5059149;28;20036;-78
2023/09/11 05:09:33;;;;;;;2.40;1.48;;;12.90;33.80;;;;;;5050752;28;20042;-80
2023/09/11 05:12:00;;;;;;;4.32;2.63;;;12.90;31.00;;;;;;5017466;28;20042;-79
2023/09/11 05:14:26;;;;;;;1.10;0.90;;;13.00;22.10;;;;;;5028338;28;20025;-79
2023/09/11 05:16:52;;;;;;;3.15;1.58;;;13.00;12.50;;;;;;5034778;28;20479;-79
2023/09/11 05:19:19;;;;;;;1.40;0.95;;;13.10;4.90;;;;;;5028404;28;20021;-78
2023/09/11 05:21:45;;;;;;;1.27;0.93;;;13.10;1.00;;;;;;5025188;28;20482;-85
2023/09/11 05:24:11;;;;;;;2.83;1.33;;;13.20;1.00;;;;;;5037300;28;20040;-85
2023/09/11 05:26:38;;;;;;;2.17;1.85;;;13.30;1.00;;;;;;5049719;28;20028;-86
2023/09/11 05:29:04;;;;;;;1.58;1.38;;;13.30;1.00;;;;;;5056163;28;20048;-85
2023/09/11 05:31:30;;;;;;;1.88;0.98;;;13.40;1.00;;;;;;5048395;28;20025;-85
2023/09/11 05:33:56;;;;;;;1.45;1.15;;;13.50;1.00;;;;;;5048255;28;20022;-85
2023/09/11 05:36:22;;;;;;;0.90;0.85;;;13.60;1.00;;;;;;5045618;28;20030;-86
2023/09/11 05:38:49;;;;;;;1.77;1.30;;;13.70;1.00;;;;;;5045794;28;20010;-85
2023/09/11 05:41:15;;;;;;;11.00;3.13;;;13.90;1.00;;;;;;5055890;28;20063;-88
2023/09/11 05:43:41;;;;;;;1.38;1.08;;;14.60;1.00;;;;;;5054139;28;20052;-86
2023/09/11 05:46:08;;;;;;;1.88;1.27;;;15.40;99.90;;;;;;5045840;28;20026;-86
2023/09/11 05:48:34;;;;;;;0.68;0.50;;;16.30;99.90;;;;;;5051089;28;20040;-86
2023/09/11 05:51:01;;;;;;;2.08;1.42;;;16.80;1.00;;;;;;5064138;28;20052;-86
2023/09/11 05:53:27;;;;;;;4.38;2.28;;;16.90;1.00;;;;;;5046995;28;20359;-89
2023/09/11 05:55:55;;;;;;;2.85;1.75;;;17.20;1.00;;;;;;5042660;28;20036;-87
2023/09/11 05:58:21;;;;;;;1.30;1.15;;;17.40;1.00;;;;;;5056859;28;20044;-88
2023/09/11 06:00:48;;;;;;;1.85;1.50;;;17.60;1.00;;;;;;5052082;28;20052;-85
2023/09/11 06:03:14;;;;;;;2.63;1.95;;;18.10;1.00;;;;;;5041387;28;20042;-90
2023/09/11 06:05:40;;;;;;;0.95;0.63;;;18.80;99.90;;;;;;5045448;28;20021;-84
2023/09/11 06:08:07;;;;;;;1.35;1.25;;;19.60;99.90;;;;;;5051585;28;20041;-84
2023/09/11 06:10:33;;;;;;;0.60;0.60;;;19.80;99.90;;;;;;5038002;28;20112;-84
2023/09/11 06:13:00;;;;;;;1.73;1.27;;;19.90;99.90;;;;;;5044727;28;20351;-84
2023/09/11 06:15:26;;;;;;;2.22;1.08;;;20.40;99.90;;;;;;5034384;28;20033;-85
2023/09/11 06:17:52;;;;;;;4.78;2.50;;;20.90;99.90;;;;;;5035261;28;20045;-83
2023/09/11 06:20:21;;;;;;;2.03;1.65;;;21.20;99.90;;;;;;5032123;28;20028;-88
2023/09/11 06:22:47;;;;;;;1.98;1.80;;;21.30;99.90;;;;;;5031516;28;20390;-86
2023/09/11 06:25:13;;;;;;;1.60;1.38;;;21.20;99.90;;;;;;5035007;28;20029;-84
2023/09/11 06:27:40;;;;;;;1.50;0.88;;;21.30;99.90;;;;;;5028832;28;20033;-83
2023/09/11 06:30:07;;;;;;;4.75;1.67;;;22.00;99.90;;;;;;5019699;28;20332;-83
2023/09/11 06:32:33;;;;;;;2.47;2.15;;;22.00;99.90;;;;;;5036689;28;20044;-84
2023/09/11 06:35:01;;;;;;;1.80;1.52;;;21.80;99.90;;;;;;5039571;28;20084;-84
2023/09/11 06:37:27;;;;;;;1.27;1.17;;;21.60;99.90;;;;;;5033784;28;20044;-84
2023/09/11 06:39:53;;;;;;;3.22;1.70;;;21.80;99.90;;;;;;5033089;28;20030;-84
2023/09/11 06:42:21;;;;;;;0.75;0.75;;;22.00;99.90;;;;;;5033774;28;20041;-84
2023/09/11 06:44:47;;;;;;;1.17;0.82;;;22.00;99.90;;;;;;5026636;28;20098;-84
2023/09/11 06:47:13;;;;;;;3.72;1.60;;;22.00;99.90;;;;;;5022243;28;20037;-84
2023/09/11 06:49:39;;;;;;;11.98;2.83;;;22.00;99.90;;;;;;5028330;28;20148;-84
2023/09/11 06:52:06;;;;;;;1.27;1.17;;;21.70;99.90;;;;;;5026192;28;20030;-84
2023/09/11 06:54:32;;;;;;;0.77;0.75;;;21.70;99.90;;;;;;5028138;28;20358;-84
2023/09/11 06:56:58;;;;;;;0.77;0.77;;;21.70;99.90;;;;;;5037068;28;20045;-84
2023/09/11 06:59:24;;;;;;;2.15;1.25;;;21.50;99.90;;;;;;5036871;28;20061;-83
2023/09/11 07:01:50;;;;;;;1.23;1.13;;;21.10;99.90;;;;;;5032769;28;20021;-83
2023/09/11 07:04:17;;;;;;;1.63;0.90;;;21.30;99.90;;;;;;5017622;28;20038;-83
2023/09/11 07:06:43;;;;;;;1.10;1.02;;;21.50;99.90;;;;;;5035110;28;20048;-83
2023/09/11 07:09:10;;;;;;;1.90;1.77;;;21.80;99.90;;;;;;5045733;28;20036;-83
2023/09/11 07:11:36;;;;;;;6.55;1.13;;;22.20;99.90;;;;;;5037695;28;20022;-83
2023/09/11 07:14:05;;;;;;;3.17;1.35;;;22.80;99.90;;;;;;5033295;28;20037;-83
2023/09/11 07:16:32;;;;;;;12.80;4.53;;;23.10;99.90;;;;;;5045138;28;20037;-83
2023/09/11 07:18:58;;;;;;;2.70;1.40;;;22.70;99.90;;;;;;5039731;28;20032;-83
2023/09/11 07:21:24;;;;;;;4.97;1.73;;;22.60;99.90;;;;;;5033070;28;20040;-83
2023/09/11 07:23:51;;;;;;;3.53;1.35;;;22.50;99.90;;;;;;5038491;28;20032;-84
2023/09/11 07:26:17;;;;;;;0.82;0.73;;;22.50;99.90;;;;;;5032685;28;20373;-83
2023/09/11 07:29:02;;;;;;;7.45;2.03;;;22.20;99.90;;;;;;5029846;28;20458;-85
2023/09/11 07:31:29;;;;;;;5.25;2.17;;;21.90;99.90;;;;;;5030715;28;20033;-84
2023/09/11 07:33:55;;;;;;;2.53;1.50;;;22.60;99.90;;;;;;5028596;28;20029;-84
2023/09/11 07:36:22;;;;;;;4.25;1.17;;;22.60;99.90;;;;;;5026126;28;20034;-83
2023/09/11 07:38:48;;;;;;;2.08;1.88;;;22.30;99.90;;;;;;5033186;28;20378;-84
2023/09/11 07:41:16;;;;;;;1.23;1.08;;;22.20;99.90;;;;;;5038513;28;20032;-88
2023/09/11 07:43:49;;;;;;;0.70;0.70;;;22.30;99.90;;;;;;5035137;28;20025;-87
2023/09/11 07:46:21;;;;;;;1.67;1.38;;;22.70;99.90;;;;;;5023342;28;20052;-90
2023/09/11 07:48:48;;;;;;;1.92;1.20;;;23.10;99.90;;;;;;5034411;28;20025;-89
2023/09/11 07:51:14;;;;;;;5.60;1.67;;;22.60;99.90;;;;;;5036995;28;20025;-86
2023/09/11 07:53:41;;;;;;;0.77;0.68;;;22.30;99.90;;;;;;5028084;28;20041;-86
2023/09/11 07:56:08;;;;;;;1.80;1.67;;;22.70;99.90;;;;;;5018035;28;20072;-86
2023/09/11 07:58:35;;;;;;;2.45;2.00;;;23.20;99.90;;;;;;5038450;28;20030;-86
2023/09/11 08:01:01;;;;;;;1.70;1.60;;;23.90;99.90;;;;;;5064960;28;20061;-88
2023/09/11 08:03:28;;;;;;;8.02;1.63;;;23.80;99.90;;;;;;5058686;28;20035;-87
2023/09/11 08:05:54;;;;;;;1.25;1.00;;;23.80;99.90;;;;;;5053713;28;20039;-86
2023/09/11 08:08:20;;;;;;;2.42;1.55;;;23.40;99.90;;;;;;5053715;28;20034;-87
2023/09/11 08:10:46;;;;;;;1.05;0.95;;;23.20;99.90;;;;;;5034979;28;20037;-87
2023/09/11 08:13:12;;;;;;;6.18;1.27;;;23.40;99.90;;;;;;5024890;28;20040;-86
2023/09/11 08:15:38;;;;;;;0.73;0.73;;;23.90;99.90;;;;;;5028873;28;20029;-88
2023/09/11 08:18:04;;;;;;;1.02;0.93;;;23.60;99.90;;;;;;5027695;28;20040;-86
2023/09/11 08:20:31;;;;;;;1.27;1.17;;;24.30;99.90;;;;;;5023812;28;20033;-87
2023/09/11 08:22:58;;;;;;;1.48;0.95;;;25.20;99.90;;;;;;5036031;28;20029;-87
2023/09/11 08:25:24;;;;;;;3.78;2.25;;;25.70;75.20;;;;;;5036391;28;20021;-84
2023/09/11 08:27:51;;;;;;;1.05;0.85;;;25.80;70.30;;;;;;5029921;28;20022;-87
2023/09/11 08:30:18;;;;;;;1.45;1.23;;;25.80;45.00;;;;;;5025666;28;20041;-88
2023/09/11 08:32:45;;;;;;;1.77;1.38;;;25.40;52.00;;;;;;5035869;28;20525;-88
2023/09/11 08:35:11;;;;;;;1.85;1.45;;;25.20;66.40;;;;;;5030343;28;20038;-88
2023/09/11 08:37:37;;;;;;;2.03;1.83;;;25.40;52.10;;;;;;5018711;28;20045;-91
2023/09/11 08:40:04;;;;;;;3.22;2.10;;;25.20;62.80;;;;;;5021286;28;20052;-87
2023/09/11 08:42:31;;;;;;;7.25;1.63;;;24.80;78.60;;;;;;5028010;28;20017;-88
2023/09/11 08:44:57;;;;;;;2.15;1.95;;;25.00;91.20;;;;;;5035896;28;20030;-87
2023/09/11 08:47:29;;;;;;;6.40;2.67;;;25.20;77.60;;;;;;5029313;28;20042;-90
2023/09/11 08:49:59;;;;;;;4.43;1.38;;;25.20;54.60;;;;;;5038488;28;20021;-88
2023/09/11 08:52:27;;;;;;;1.60;1.35;;;25.20;67.60;;;;;;5030852;28;20025;-88
2023/09/11 08:54:58;;;;;;;2.47;2.10;;;26.00;30.00;;;;;;5028354;28;20026;-90
2023/09/11 08:57:28;;;;;;;2.70;2.40;;;25.90;26.60;;;;;;5026564;28;20382;-91
2023/09/11 09:00:00;;;;;;;3.63;2.38;;;25.80;29.10;;;;;;5043195;28;20048;-88
2023/09/11 09:02:27;;;;;;;3.13;2.42;;;25.40;34.30;;;;;;5020979;28;20048;-87
2023/09/11 09:04:55;;;;;;;1.90;1.80;;;25.30;41.40;;;;;;5026458;28;20022;-88
2023/09/11 09:07:22;;;;;;;4.00;2.63;;;25.80;31.30;;;;;;5036935;28;20053;-87
2023/09/11 09:09:48;;;;;;;11.70;2.95;;;25.90;43.90;;;;;;5033153;28;20032;-88
2023/09/11 09:12:15;;;;;;;4.63;3.15;;;26.10;15.70;;;;;;5026982;28;20382;-89
2023/09/11 09:14:41;;;;;;;5.18;2.70;;;25.70;22.30;;;;;;5029348;28;20030;-86
2023/09/11 09:17:07;;;;;;;14.00;3.90;;;25.90;32.70;;;;;;5026985;28;20037;-87
2023/09/11 09:19:34;;;;;;;3.47;2.08;;;26.60;16.10;;;;;;5023563;28;20033;-86
2023/09/11 09:22:04;;;;;;;4.80;2.17;;;26.80;1.00;;;;;;5016860;28;20030;-87
2023/09/11 09:24:45;;;;;;;4.30;1.67;;;26.70;1.00;;;;;;5026025;28;20057;-87
2023/09/11 09:27:11;;;;;;;1.52;1.27;;;26.20;1.60;;;;;;5028927;28;20460;-87
2023/09/11 09:29:38;;;;;;;3.72;2.72;;;26.20;15.70;;;;;;5035763;28;20268;-87
2023/09/11 09:32:07;;;;;;;1.52;1.42;;;26.40;1.00;;;;;;5024533;28;20030;-88
2023/09/11 09:34:35;;;;;;;2.80;2.50;;;25.90;6.70;;;;;;5035190;28;20034;-85
2023/09/11 09:37:01;;;;;;;1.80;1.70;;;26.00;17.90;;;;;;5024681;28;20514;-83
2023/09/11 09:39:29;;;;;;;2.75;2.47;;;26.10;6.30;;;;;;5023591;28;20060;-84
2023/09/11 09:41:58;;;;;;;1.60;1.40;;;26.40;5.70;;;;;;5032268;28;20029;-85
2023/09/11 09:44:31;;;;;;;0.77;0.77;;;26.70;1.00;;;;;;5031353;28;20169;-88
2023/09/11 09:47:21;;;;;;;5.70;2.40;;;26.70;1.00;;;;;;5019262;28;20027;-86
2023/09/11 09:49:52;;;;;;;3.33;1.58;;;26.80;5.00;;;;;;5044330;28;20044;-86
2023/09/11 09:52:20;;;;;;;2.38;1.92;;;26.90;1.00;;;;;;5027174;28;20370;-82
2023/09/11 09:54:58;;;;;;;2.35;2.15;;;27.20;1.00;;;;;;5033490;28;20356;-82
2023/09/11 09:57:26;;;;;;;1.88;1.13;;;27.30;1.00;;;;;;5035379;28;20029;-83
2023/09/11 09:59:58;;;;;;;2.83;2.08;;;27.40;1.00;;;;;;5038800;28;20108;-86
2023/09/11 10:02:29;;;;;;;2.47;1.88;;;27.60;1.00;;;;;;5026445;28;20443;-87
2023/09/11 10:04:57;;;;;;;1.15;1.05;;;27.80;1.00;;;;;;5021458;28;20034;-84
2023/09/11 10:07:39;;;;;;;0.70;0.70;;;27.70;1.00;;;;;;5032650;28;20439;-86
2023/09/11 10:10:21;;;;;;;1.35;1.25;;;27.60;1.00;;;;;;5028903;28;20026;-85
2023/09/11 10:13:02;;;;;;;1.70;1.08;;;27.70;1.00;;;;;;5030093;28;20034;-84
2023/09/11 10:15:29;;;;;;;1.30;0.73;;;27.50;1.00;;;;;;5039541;28;20476;-82
2023/09/11 10:17:56;;;;;;;1.35;1.15;;;27.70;1.00;;;;;;5026319;28;20479;-85
2023/09/11 10:20:24;;;;;;;1.38;1.27;;;27.60;1.00;;;;;;5033979;28;20458;-82
2023/09/11 10:22:58;;;;;;;0.80;0.80;;;27.40;1.00;;;;;;5032482;28;20025;-82
2023/09/11 10:25:26;;;;;;;1.33;1.23;;;27.60;1.00;;;;;;5033837;28;20029;-82
2023/09/11 10:28:04;;;;;;;2.83;1.50;;;27.70;1.00;;;;;;5029506;28;20101;-82
2023/09/11 10:30:37;;;;;;;1.13;1.00;;;27.40;1.00;;;;;;5026920;28;20022;-82
2023/09/11 10:33:11;;;;;;;3.28;1.23;;;27.30;1.00;;;;;;5031655;28;20041;-84
2023/09/11 10:35:40;;;;;;;7.45;2.00;;;27.40;1.00;;;;;;5052398;28;20029;-82
2023/09/11 10:38:08;;;;;;;1.10;1.00;;;27.50;1.00;;;;;;5041093;28;20038;-82
2023/09/11 10:40:35;;;;;;;2.10;1.90;;;27.80;1.00;;;;;;5040102;28;20037;-82
2023/09/11 10:43:02;;;;;;;1.08;0.93;;;27.90;1.00;;;;;;5034180;28;20049;-82
2023/09/11 10:45:29;;;;;;;2.03;1.45;;;27.80;1.00;;;;;;5028160;28;20026;-80
2023/09/11 10:47:56;;;;;;;1.33;1.23;;;28.20;1.00;;;;;;5024162;28;20093;-82
2023/09/11 10:50:42;;;;;;;1.15;1.05;;;28.20;1.00;;;;;;5039823;28;20033;-86
2023/09/11 10:53:09;;;;;;;4.63;2.40;;;28.30;1.00;;;;;;5054600;28;20029;-82
2023/09/11 10:55:35;;;;;;;1.20;1.10;;;28.50;1.00;;;;;;5030732;28;20093;-83
2023/09/11 10:58:06;;;;;;;0.70;0.70;;;28.70;1.00;;;;;;5038188;28;20042;-82
2023/09/11 11:00:39;;;;;;;1.77;0.63;;;28.70;1.00;;;;;;5030503;28;20382;-83
2023/09/11 11:03:06;;;;;;;1.00;1.00;;;28.80;1.00;;;;;;5032643;28;20454;-84
2023/09/11 11:05:33;;;;;;;1.42;0.60;;;28.90;1.00;;;;;;5029453;28;20374;-84
2023/09/11 11:08:01;;;;;;;0.85;0.85;;;28.90;1.00;;;;;;5033156;28;20033;-84
2023/09/11 11:10:27;;;;;;;2.65;1.48;;;28.60;1.00;;;;;;5032692;28;20367;-84
2023/09/11 11:13:07;;;;;;;0.50;0.50;;;28.40;1.00;;;;;;5030133;28;20029;-82
2023/09/11 11:15:34;;;;;;;1.27;1.05;;;28.30;1.00;;;;;;5034611;28;20032;-83
2023/09/11 11:18:15;;;;;;;1.75;0.55;;;28.30;1.00;;;;;;5040072;28;20041;-83
2023/09/11 11:20:59;;;;;;;1.17;1.08;;;28.30;1.00;;;;;;5035242;28;20036;-85
2023/09/11 11:23:28;;;;;;;4.75;2.25;;;28.20;1.00;;;;;;5032715;28;20336;-84
2023/09/11 11:25:58;;;;;;;0.40;0.40;;;28.20;1.00;;;;;;5032552;28;20033;-83
2023/09/11 11:28:25;;;;;;;0.88;0.88;;;28.40;1.00;;;;;;5025677;28;20029;-81
2023/09/11 11:30:53;;;;;;;3.70;1.05;;;28.40;1.00;;;;;;5020940;28;20032;-82
2023/09/11 11:33:24;;;;;;;5.18;1.95;;;28.50;1.00;;;;;;5034962;28;20344;-81
2023/09/11 11:35:53;;;;;;;1.33;0.93;;;28.80;1.00;;;;;;5023657;28;20467;-82
2023/09/11 11:38:19;;;;;;;1.10;1.00;;;28.90;1.00;;;;;;5032289;28;20478;-83
2023/09/11 11:40:47;;;;;;;3.30;1.45;;;29.00;1.00;;;;;;5034068;28;20037;-83
2023/09/11 11:43:14;;;;;;;0.40;0.40;;;29.10;1.00;;;;;;5034938;28;20033;-81
2023/09/11 11:45:44;;;;;;;3.72;2.33;;;28.90;1.00;;;;;;5029821;28;20039;-82
2023/09/11 11:48:11;;;;;;;1.10;0.90;;;29.10;1.00;;;;;;5024761;28;20378;-83
2023/09/11 11:50:42;;;;;;;0.75;0.63;;;29.20;1.00;;;;;;5032788;28;20033;-81
2023/09/11 11:53:20;;;;;;;8.52;1.73;;;29.10;1.00;;;;;;5032123;28;20036;-81
2023/09/11 11:55:47;;;;;;;1.90;1.60;;;29.10;1.00;;;;;;5018828;28;20030;-82
2023/09/11 11:58:15;;;;;;;0.63;0.63;;;29.20;1.00;;;;;;5020431;28;20030;-82
2023/09/11 12:00:54;;;;;;;1.75;1.38;;;29.20;1.00;;;;;;5035022;28;20586;-80
2023/09/11 12:03:20;;;;;;;4.25;1.55;;;29.10;1.00;;;;;;5038549;28;20370;-81
2023/09/11 12:05:47;;;;;;;0.98;0.93;;;29.30;1.00;;;;;;5027242;28;20051;-81
2023/09/11 12:08:14;;;;;;;0.85;0.85;;;29.40;1.00;;;;;;5033655;28;20029;-81
2023/09/11 12:10:45;;;;;;;1.10;1.00;;;29.60;1.00;;;;;;5029828;28;20053;-82
2023/09/11 12:13:16;;;;;;;0.98;0.65;;;29.70;1.00;;;;;;5027097;28;20029;-83
2023/09/11 12:15:43;;;;;;;4.25;1.60;;;29.60;1.00;;;;;;5027795;28;20454;-83
2023/09/11 12:18:13;;;;;;;2.85;1.25;;;29.40;1.00;;;;;;5023869;28;20126;-82
2023/09/11 12:20:53;;;;;;;1.88;1.38;;;29.50;1.00;;;;;;5021793;28;20391;-83
2023/09/11 12:23:20;;;;;;;2.70;2.30;;;29.50;1.00;;;;;;5030055;28;20025;-82
2023/09/11 12:25:47;;;;;;;1.38;1.08;;;29.60;1.00;;;;;;5036993;28;20037;-84
2023/09/11 12:28:14;;;;;;;0.88;0.88;;;29.70;1.00;;;;;;5023223;28;20029;-82
2023/09/11 12:30:42;;;;;;;0.60;0.60;;;29.90;1.00;;;;;;5022188;28;20029;-82
2023/09/11 12:33:09;;;;;;;1.03;1.03;;;30.00;1.00;;;;;;5049878;28;20028;-82
2023/09/11 12:35:36;;;;;;;1.00;1.00;;;30.00;1.00;;;;;;5024487;28;20026;-82
2023/09/11 12:38:03;;;;;;;3.10;1.42;;;30.00;1.00;;;;;;5018237;28;20664;-83
2023/09/11 12:40:29;;;;;;;1.23;0.70;;;30.10;1.00;;;;;;5035243;28;20044;-83
2023/09/11 12:42:56;;;;;;;8.55;1.95;;;30.00;1.00;;;;;;5027792;28;20025;-83
2023/09/11 12:45:22;;;;;;;3.47;2.17;;;29.70;1.00;;;;;;5033621;28;20034;-83
2023/09/11 12:47:48;;;;;;;4.38;1.00;;;29.70;1.00;;;;;;5028287;28;20046;-81
2023/09/11 12:50:14;;;;;;;0.43;0.43;;;29.70;1.00;;;;;;5034049;28;20030;-83
2023/09/11 12:52:41;;;;;;;0.52;0.52;;;29.90;1.00;;;;;;5030710;28;20033;-83
2023/09/11 12:55:07;;;;;;;1.02;0.93;;;29.90;1.00;;;;;;5024840;28;20036;-83
2023/09/11 12:57:33;;;;;;;0.80;0.77;;;30.00;1.00;;;;;;5028597;28;20490;-83